createdAt,value
2023-04-30T00:00:36.291Z,21.98
2023-04-30T00:03:04.783Z,20.25
2023-04-30T00:05:32.145Z,21.70
2023-04-30T00:07:59.024Z,23.27
2023-04-30T00:10:26.044Z,21.70
2023-04-30T00:12:53.153Z,21.48
2023-04-30T00:15:21.671Z,20.98
2023-04-30T00:17:49.184Z,23.05
2023-04-30T00:20:16.466Z,26.30
2023-04-30T00:22:44.021Z,21.67
2023-04-30T00:25:11.728Z,22.00
2023-04-30T00:27:40.784Z,19.75
2023-04-30T00:30:08.733Z,20.15
2023-04-30T00:32:36.257Z,20.25
2023-04-30T00:35:04.410Z,19.08
2023-04-30T00:37:32.104Z,20.20
2023-04-30T00:39:59.896Z,19.23
2023-04-30T00:42:26.795Z,21.90
2023-04-30T00:44:53.681Z,19.08
2023-04-30T00:47:20.906Z,19.83
2023-04-30T00:49:48.420Z,19.58
2023-04-30T00:52:15.681Z,21.73
2023-04-30T00:54:43.112Z,21.60
2023-04-30T00:57:13.882Z,21.73
2023-04-30T00:59:43.026Z,19.08
2023-04-30T01:02:10.687Z,19.67
2023-04-30T01:04:37.720Z,17.30
2023-04-30T01:07:05.666Z,19.80
2023-04-30T01:09:33.246Z,20.73
2023-04-30T01:12:22.098Z,17.52
2023-04-30T01:15:26.333Z,20.67
2023-04-30T01:18:09.681Z,22.73
2023-04-30T01:20:57.057Z,16.15
2023-04-30T01:23:35.613Z,19.73
2023-04-30T01:26:12.501Z,19.20
2023-04-30T01:28:43.994Z,18.02
2023-04-30T01:31:20.804Z,19.13
2023-04-30T01:33:53.580Z,19.50
2023-04-30T01:36:52.321Z,18.10
2023-04-30T01:39:56.562Z,17.52
2023-04-30T01:42:51.600Z,16.05
2023-04-30T01:45:37.084Z,18.80
2023-04-30T01:48:33.747Z,15.10
2023-04-30T01:51:22.525Z,18.00
2023-04-30T01:53:49.928Z,15.48
2023-04-30T01:56:33.110Z,14.57
2023-04-30T01:59:02.234Z,17.00
2023-04-30T02:01:31.586Z,18.88
2023-04-30T02:03:59.226Z,17.50
2023-04-30T02:06:31.700Z,14.40
2023-04-30T02:09:03.489Z,15.82
2023-04-30T02:11:30.981Z,20.05
2023-04-30T02:16:43.273Z,17.75
2023-04-30T02:19:11.539Z,21.30
2023-04-30T02:21:38.537Z,17.38
2023-04-30T02:24:06.308Z,18.55
2023-04-30T02:26:33.172Z,19.05
2023-04-30T02:29:00.231Z,18.55
2023-04-30T02:31:27.183Z,18.20
2023-04-30T02:33:54.628Z,18.52
2023-04-30T02:36:21.721Z,18.08
2023-04-30T02:38:48.850Z,18.05
2023-04-30T02:41:16.095Z,20.77
2023-04-30T02:43:44.278Z,17.70
2023-04-30T02:46:11.659Z,20.05
2023-04-30T02:48:39.220Z,18.67
2023-04-30T02:51:06.695Z,17.63
2023-04-30T02:53:33.882Z,17.88
2023-04-30T02:56:00.861Z,20.27
2023-04-30T02:58:27.887Z,18.63
2023-04-30T03:00:56.135Z,18.33
2023-04-30T03:03:24.646Z,20.67
2023-04-30T03:05:51.894Z,18.50
2023-04-30T03:08:18.785Z,17.45
2023-04-30T03:10:45.824Z,19.60
2023-04-30T03:13:12.958Z,21.92
2023-04-30T03:15:39.903Z,20.25
2023-04-30T03:18:07.573Z,24.90
2023-04-30T03:20:34.567Z,19.48
2023-04-30T03:23:01.505Z,25.98
2023-04-30T03:25:28.641Z,23.65
2023-04-30T03:27:56.810Z,24.95
2023-04-30T03:30:24.932Z,25.23
2023-04-30T03:32:51.843Z,24.70
2023-04-30T03:35:19.537Z,26.98
2023-04-30T03:37:47.025Z,25.70
2023-04-30T03:40:14.149Z,25.80
2023-04-30T03:42:41.129Z,27.85
2023-04-30T03:45:08.984Z,23.65
2023-04-30T03:47:37.098Z,25.25
2023-04-30T03:50:05.189Z,27.17
2023-04-30T03:52:35.079Z,30.85
2023-04-30T03:55:02.053Z,29.38
2023-04-30T03:57:29.553Z,25.63
2023-04-30T03:59:57.481Z,26.83
2023-04-30T04:02:24.878Z,28.15
2023-04-30T04:04:52.794Z,27.42
2023-04-30T04:07:20.272Z,27.13
2023-04-30T04:09:47.590Z,25.30
2023-04-30T04:12:14.431Z,26.98
2023-04-30T04:14:41.485Z,28.27
2023-04-30T04:17:09.124Z,27.98
2023-04-30T04:19:35.968Z,28.40
2023-04-30T04:22:03.071Z,27.63
2023-04-30T04:24:30.085Z,24.30
2023-04-30T04:26:58.293Z,25.23
2023-04-30T04:29:26.908Z,26.27
2023-04-30T04:31:56.077Z,27.77
2023-04-30T04:34:23.895Z,25.00
2023-04-30T04:36:51.541Z,25.92
2023-04-30T04:39:19.938Z,25.38
2023-04-30T04:41:47.095Z,27.35
2023-04-30T04:44:14.144Z,25.95
2023-04-30T04:46:44.445Z,31.05
2023-04-30T04:49:15.405Z,25.75
2023-04-30T04:51:42.996Z,26.10
2023-04-30T04:54:10.029Z,26.23
2023-04-30T04:56:37.144Z,27.45
2023-04-30T04:59:04.285Z,27.33
2023-04-30T05:01:31.748Z,26.50
2023-04-30T05:03:58.974Z,26.67
2023-04-30T05:06:27.594Z,23.65
2023-04-30T05:08:54.473Z,26.17
2023-04-30T05:11:22.921Z,26.80
2023-04-30T05:13:49.889Z,26.23
2023-04-30T05:16:17.595Z,26.70
2023-04-30T05:18:45.119Z,26.67
2023-04-30T05:21:12.372Z,25.25
2023-04-30T05:23:40.100Z,24.60
2023-04-30T05:26:07.232Z,23.58
2023-04-30T05:28:34.878Z,25.33
2023-04-30T05:31:02.114Z,26.13
2023-04-30T05:33:29.457Z,26.63
2023-04-30T05:35:56.420Z,29.58
2023-04-30T05:38:24.014Z,24.85
2023-04-30T05:40:50.926Z,25.58
2023-04-30T05:43:18.917Z,24.92
2023-04-30T05:45:46.159Z,24.73
2023-04-30T05:48:13.577Z,21.58
2023-04-30T05:50:40.852Z,24.52
2023-04-30T05:53:08.731Z,25.35
2023-04-30T05:55:36.392Z,23.42
2023-04-30T05:58:03.400Z,24.95
2023-04-30T06:00:30.545Z,27.15
2023-04-30T06:02:57.588Z,21.63
2023-04-30T06:05:24.745Z,23.35
2023-04-30T06:07:51.826Z,24.27
2023-04-30T06:10:18.984Z,21.20
2023-04-30T06:12:46.508Z,22.95
2023-04-30T06:15:13.651Z,21.65
2023-04-30T06:17:40.598Z,21.73
2023-04-30T06:20:08.612Z,20.70
2023-04-30T06:22:35.925Z,19.15
2023-04-30T06:25:03.706Z,17.55
2023-04-30T06:27:33.262Z,18.77
2023-04-30T06:30:01.144Z,17.77
2023-04-30T06:32:28.841Z,22.52
2023-04-30T06:34:56.669Z,18.48
2023-04-30T06:37:23.945Z,17.83
2023-04-30T06:39:51.716Z,18.42
2023-04-30T06:42:18.657Z,17.65
2023-04-30T06:44:47.806Z,16.83
2023-04-30T06:47:15.063Z,19.27
2023-04-30T06:49:42.224Z,16.58
2023-04-30T06:52:09.313Z,15.18
2023-04-30T06:54:36.439Z,15.68
2023-04-30T06:57:03.420Z,16.88
2023-04-30T06:59:30.504Z,17.27
2023-04-30T07:01:57.424Z,17.27
2023-04-30T07:04:24.708Z,15.07
2023-04-30T07:06:52.225Z,15.05
2023-04-30T07:09:19.418Z,16.13
2023-04-30T07:11:46.653Z,16.52
2023-04-30T07:14:13.646Z,15.48
2023-04-30T07:16:41.175Z,15.77
2023-04-30T07:19:08.498Z,14.70
2023-04-30T07:21:35.474Z,14.23
2023-04-30T07:24:02.508Z,15.88
2023-04-30T07:26:29.522Z,15.35
2023-04-30T07:28:57.390Z,13.85
2023-04-30T07:31:26.215Z,11.70
2023-04-30T07:33:55.349Z,13.82
2023-04-30T07:36:23.187Z,12.90
2023-04-30T07:38:50.315Z,14.82
2023-04-30T07:41:17.398Z,17.67
2023-04-30T07:43:44.694Z,15.38
2023-04-30T07:46:13.288Z,15.95
2023-04-30T07:48:40.376Z,12.15
2023-04-30T07:51:07.660Z,12.73
2023-04-30T07:53:34.952Z,17.35
2023-04-30T07:56:02.041Z,12.93
2023-04-30T07:58:29.031Z,12.65
2023-04-30T08:00:56.251Z,15.07
2023-04-30T08:03:32.772Z,17.00
2023-04-30T08:06:00.885Z,14.02
2023-04-30T08:08:28.243Z,12.48
2023-04-30T08:10:55.090Z,11.32
2023-04-30T08:13:22.329Z,16.90
2023-04-30T08:15:49.197Z,10.80
2023-04-30T08:18:16.425Z,10.88
2023-04-30T08:20:43.767Z,13.55
2023-04-30T08:23:11.091Z,13.00
2023-04-30T08:25:38.157Z,10.23
2023-04-30T08:28:08.365Z,9.93
2023-04-30T08:30:35.276Z,9.43
2023-04-30T08:33:02.638Z,11.55
2023-04-30T08:35:30.221Z,10.32
2023-04-30T08:37:57.271Z,9.00
2023-04-30T08:40:43.746Z,10.27
2023-04-30T08:43:11.976Z,11.18
2023-04-30T08:45:39.129Z,10.75
2023-04-30T08:48:16.486Z,13.65
2023-04-30T08:50:43.741Z,10.52
2023-04-30T08:53:13.242Z,6.47
2023-04-30T08:55:41.599Z,6.25
2023-04-30T08:58:10.769Z,8.95
2023-04-30T09:00:40.062Z,10.13
2023-04-30T09:03:09.073Z,9.93
2023-04-30T09:05:38.608Z,10.18
2023-04-30T09:08:08.975Z,8.70
2023-04-30T09:10:36.494Z,9.48
2023-04-30T09:13:09.314Z,7.38
2023-04-30T09:15:41.253Z,7.68
2023-04-30T09:18:18.538Z,6.63
2023-04-30T09:21:06.149Z,6.45
2023-04-30T09:23:33.223Z,6.25
2023-04-30T09:26:01.989Z,4.75
2023-04-30T09:28:29.278Z,4.43
2023-04-30T09:30:58.198Z,6.50
2023-04-30T09:33:26.197Z,4.85
2023-04-30T09:35:53.286Z,3.75
2023-04-30T09:38:32.990Z,4.47
2023-04-30T09:41:01.625Z,3.88
2023-04-30T09:43:30.255Z,6.47
2023-04-30T09:46:00.291Z,4.07
2023-04-30T09:48:29.094Z,5.30
2023-04-30T09:50:57.856Z,5.90
2023-04-30T09:53:24.945Z,4.55
2023-04-30T09:55:53.172Z,9.68
2023-04-30T09:58:20.381Z,7.05
2023-04-30T10:00:49.604Z,5.25
2023-04-30T10:03:17.731Z,6.82
2023-04-30T10:05:49.152Z,6.90
2023-04-30T10:08:30.967Z,9.85
2023-04-30T10:11:09.060Z,6.03
2023-04-30T10:13:44.142Z,6.32
2023-04-30T10:16:34.556Z,7.65
2023-04-30T10:19:08.267Z,6.43
2023-04-30T10:21:37.060Z,5.97
2023-04-30T10:24:06.403Z,5.65
2023-04-30T10:26:33.929Z,4.80
2023-04-30T10:29:01.489Z,3.75
2023-04-30T10:31:31.161Z,3.85
2023-04-30T10:34:35.772Z,4.57
2023-04-30T10:37:24.721Z,4.22
2023-04-30T10:39:52.270Z,4.45
2023-04-30T10:42:20.073Z,5.88
2023-04-30T10:44:48.726Z,5.80
2023-04-30T10:47:19.294Z,5.10
2023-04-30T10:49:50.348Z,4.80
2023-04-30T10:52:29.892Z,7.03
2023-04-30T10:54:57.554Z,5.07
2023-04-30T10:57:25.230Z,4.63
2023-04-30T11:00:19.190Z,3.88
2023-04-30T11:02:48.759Z,5.53
2023-04-30T11:05:18.414Z,3.28
2023-04-30T11:07:50.040Z,2.97
2023-04-30T11:10:21.731Z,3.35
2023-04-30T11:12:50.961Z,4.50
2023-04-30T11:15:21.202Z,4.15
2023-04-30T11:17:51.545Z,4.60
2023-04-30T11:20:25.139Z,3.95
2023-04-30T11:23:19.648Z,4.60
2023-04-30T11:25:56.267Z,4.20
2023-04-30T11:28:27.991Z,5.53
2023-04-30T11:31:01.268Z,2.90
2023-04-30T11:33:31.305Z,4.78
2023-04-30T11:36:04.632Z,10.57
2023-04-30T11:38:36.258Z,3.75
2023-04-30T11:41:05.317Z,3.42
2023-04-30T11:43:34.740Z,5.15
2023-04-30T11:46:09.942Z,8.25
2023-04-30T11:48:44.020Z,6.40
2023-04-30T11:51:24.477Z,4.15
2023-04-30T11:53:53.404Z,3.65
2023-04-30T11:56:22.886Z,5.13
2023-04-30T11:58:52.771Z,4.30
2023-04-30T12:01:27.726Z,5.68
2023-04-30T12:03:57.676Z,3.80
2023-04-30T12:06:28.305Z,6.35
2023-04-30T12:08:57.599Z,3.70
2023-04-30T12:11:30.453Z,3.38
2023-04-30T12:14:12.805Z,3.13
2023-04-30T12:16:52.816Z,4.80
2023-04-30T12:19:27.823Z,5.72
2023-04-30T12:21:55.425Z,5.22
2023-04-30T12:24:24.068Z,1.90
2023-04-30T12:26:54.258Z,3.25
2023-04-30T12:29:25.047Z,4.97
2023-04-30T12:31:53.562Z,4.35
2023-04-30T12:34:20.659Z,4.35
2023-04-30T12:36:53.928Z,3.88
2023-04-30T12:39:21.771Z,5.40
2023-04-30T12:41:49.993Z,3.40
2023-04-30T12:44:26.144Z,3.05
2023-04-30T12:46:57.499Z,3.90
2023-04-30T12:49:25.997Z,3.70
2023-04-30T12:52:08.822Z,3.50
2023-04-30T12:54:37.442Z,3.28
2023-04-30T12:57:09.131Z,3.80
2023-04-30T12:59:51.288Z,3.15
2023-04-30T13:02:18.955Z,3.30
2023-04-30T13:04:46.657Z,2.78
2023-04-30T13:07:13.740Z,2.75
2023-04-30T13:09:40.986Z,2.95
2023-04-30T13:12:08.773Z,2.38
2023-04-30T13:14:42.773Z,3.20
2023-04-30T13:17:12.421Z,3.72
2023-04-30T13:19:40.215Z,3.03
2023-04-30T13:22:07.443Z,3.85
2023-04-30T13:24:35.155Z,2.65
2023-04-30T13:27:03.159Z,2.38
2023-04-30T13:29:30.569Z,3.55
2023-04-30T13:31:58.265Z,3.50
2023-04-30T13:34:25.669Z,4.15
2023-04-30T13:36:53.583Z,2.42
2023-04-30T13:39:22.042Z,3.20
2023-04-30T13:41:52.412Z,3.75
2023-04-30T13:44:19.685Z,2.13
2023-04-30T13:47:04.633Z,3.72
2023-04-30T13:49:32.507Z,3.15
2023-04-30T13:51:59.621Z,2.28
2023-04-30T13:54:27.707Z,2.58
2023-04-30T13:56:56.172Z,2.90
2023-04-30T13:59:23.762Z,2.65
2023-04-30T14:01:50.966Z,2.35
2023-04-30T14:04:18.723Z,3.17
2023-04-30T14:06:46.462Z,2.05
2023-04-30T14:09:13.863Z,4.05
2023-04-30T14:11:43.106Z,3.53
2023-04-30T14:14:10.216Z,2.83
2023-04-30T14:16:37.719Z,1.42
2023-04-30T14:19:05.645Z,1.85
2023-04-30T14:21:34.817Z,3.50
2023-04-30T14:24:04.185Z,2.58
2023-04-30T14:26:32.173Z,2.65
2023-04-30T14:28:59.206Z,3.08
2023-04-30T14:31:27.080Z,2.40
2023-04-30T14:33:54.464Z,2.25
2023-04-30T14:36:21.630Z,1.63
2023-04-30T14:38:48.714Z,3.15
2023-04-30T14:41:16.905Z,3.28
2023-04-30T14:43:44.201Z,2.03
2023-04-30T14:46:12.967Z,2.35
2023-04-30T14:48:42.710Z,3.75
2023-04-30T14:51:09.856Z,1.85
2023-04-30T14:53:37.425Z,4.70
2023-04-30T14:56:04.763Z,3.00
2023-04-30T14:58:31.650Z,2.05
2023-04-30T15:00:58.955Z,1.75
2023-04-30T15:03:26.116Z,1.63
2023-04-30T15:05:53.278Z,1.65
2023-04-30T15:08:23.498Z,2.85
2023-04-30T15:10:50.512Z,4.32
2023-04-30T15:13:18.505Z,4.32
2023-04-30T15:15:47.753Z,1.33
2023-04-30T15:18:15.818Z,2.08
2023-04-30T15:20:46.024Z,2.33
2023-04-30T15:23:12.993Z,1.70
2023-04-30T15:25:42.317Z,1.33
2023-04-30T15:28:09.473Z,1.73
2023-04-30T15:30:37.238Z,1.80
2023-04-30T15:33:04.737Z,19.40
2023-04-30T15:35:32.011Z,3.30
2023-04-30T15:37:59.094Z,8.48
2023-04-30T15:40:26.439Z,6.65
2023-04-30T15:42:53.438Z,2.45
2023-04-30T15:45:20.887Z,2.13
2023-04-30T15:47:48.185Z,4.22
2023-04-30T15:50:15.650Z,4.88
2023-04-30T15:52:42.803Z,2.10
2023-04-30T15:55:10.500Z,2.38
2023-04-30T15:57:37.733Z,6.15
2023-04-30T16:00:05.990Z,5.30
2023-04-30T16:02:35.986Z,3.47
2023-04-30T16:05:04.067Z,29.85
2023-04-30T16:07:32.466Z,39.42
2023-04-30T16:10:01.426Z,69.28
2023-04-30T16:12:28.347Z,2.40
2023-04-30T16:14:55.220Z,4.85
2023-04-30T16:17:22.089Z,6.65
2023-04-30T16:19:49.111Z,3.85
2023-04-30T16:22:17.253Z,3.10
2023-04-30T16:24:44.704Z,2.63
2023-04-30T16:27:11.793Z,4.93
2023-04-30T16:29:38.667Z,7.03
2023-04-30T16:32:05.973Z,3.88
2023-04-30T16:34:33.237Z,1.80
2023-04-30T16:37:00.598Z,2.20
2023-04-30T16:39:27.849Z,2.33
2023-04-30T16:41:55.188Z,1.60
2023-04-30T16:44:22.964Z,6.13
2023-04-30T16:46:50.391Z,10.93
2023-04-30T16:49:17.438Z,6.88
2023-04-30T16:51:44.433Z,8.45
2023-04-30T16:54:14.881Z,15.30
2023-04-30T16:56:42.451Z,8.43
2023-04-30T16:59:09.615Z,2.58
2023-04-30T17:01:37.005Z,4.97
2023-04-30T17:04:04.829Z,3.60
2023-04-30T17:06:33.499Z,2.25
2023-04-30T17:09:01.167Z,2.60
2023-04-30T17:11:29.350Z,2.60
2023-04-30T17:13:57.167Z,1.58
2023-04-30T17:16:24.354Z,2.25
2023-04-30T17:18:51.224Z,2.25
2023-04-30T17:21:18.177Z,1.80
2023-04-30T17:23:45.934Z,3.53
2023-04-30T17:26:13.022Z,3.10
2023-04-30T17:28:39.920Z,2.35
2023-04-30T17:31:07.720Z,1.92
2023-04-30T17:33:35.008Z,3.38
2023-04-30T17:36:02.146Z,2.65
2023-04-30T17:38:32.422Z,2.28
2023-04-30T17:40:59.335Z,2.55
2023-04-30T17:43:26.818Z,5.53
2023-04-30T17:45:54.652Z,1.88
2023-04-30T17:48:22.580Z,1.55
2023-04-30T17:50:49.495Z,1.73
2023-04-30T17:53:16.575Z,3.33
2023-04-30T17:55:43.659Z,1.63
2023-04-30T17:58:11.569Z,3.08
2023-04-30T18:00:42.810Z,1.77
2023-04-30T18:03:10.422Z,1.77
2023-04-30T18:05:37.901Z,3.25
2023-04-30T18:08:06.322Z,2.10
2023-04-30T18:10:33.307Z,5.60
2023-04-30T18:13:00.971Z,4.80
2023-04-30T18:15:29.356Z,9.25
2023-04-30T18:17:56.448Z,15.65
2023-04-30T18:20:23.544Z,13.88
2023-04-30T18:22:50.727Z,11.88
2023-04-30T18:25:19.628Z,5.22
2023-04-30T18:27:49.705Z,7.47
2023-04-30T18:30:17.482Z,3.42
2023-04-30T18:32:44.770Z,2.88
2023-04-30T18:35:12.210Z,2.70
2023-04-30T18:37:39.604Z,1.95
2023-04-30T18:40:07.664Z,2.47
2023-04-30T18:42:35.098Z,3.45
2023-04-30T18:45:02.284Z,3.17
2023-04-30T18:47:30.616Z,2.33
2023-04-30T18:49:58.262Z,2.28
2023-04-30T18:52:25.600Z,1.75
2023-04-30T18:54:52.637Z,4.50
2023-04-30T18:57:19.998Z,3.72
2023-04-30T18:59:47.966Z,2.75
2023-04-30T19:02:15.761Z,2.33
2023-04-30T19:04:42.766Z,3.38
2023-04-30T19:07:10.640Z,2.17
2023-04-30T19:09:38.504Z,1.92
2023-04-30T19:12:06.744Z,3.22
2023-04-30T19:14:34.080Z,6.07
2023-04-30T19:17:01.396Z,3.88
2023-04-30T19:19:28.581Z,2.83
2023-04-30T19:21:55.935Z,2.70
2023-04-30T19:24:25.360Z,2.97
2023-04-30T19:26:52.606Z,2.55
2023-04-30T19:29:19.590Z,2.80
2023-04-30T19:31:46.899Z,4.45
2023-04-30T19:34:14.275Z,3.58
2023-04-30T19:36:50.379Z,4.18
2023-04-30T19:39:17.794Z,3.35
2023-04-30T19:41:45.028Z,3.15
2023-04-30T19:44:12.354Z,1.88
2023-04-30T19:46:39.484Z,3.95
2023-04-30T19:49:09.268Z,5.25
2023-04-30T19:51:36.735Z,2.90
2023-04-30T19:54:03.782Z,2.42
2023-04-30T19:56:32.483Z,2.85
2023-04-30T19:58:59.424Z,3.63
2023-04-30T20:01:26.423Z,3.28
2023-04-30T20:03:53.804Z,5.53
2023-04-30T20:06:21.608Z,2.50
2023-04-30T20:08:51.092Z,3.33
2023-04-30T20:11:18.488Z,4.20
2023-04-30T20:13:45.620Z,5.15
2023-04-30T20:16:12.783Z,8.23
2023-04-30T20:18:43.102Z,7.22
2023-04-30T20:21:10.354Z,7.20
2023-04-30T20:23:40.840Z,5.88
2023-04-30T20:26:09.337Z,4.85
2023-04-30T20:28:36.957Z,4.22
2023-04-30T20:31:04.380Z,6.03
2023-04-30T20:33:31.442Z,7.80
2023-04-30T20:36:00.578Z,5.03
2023-04-30T20:38:27.727Z,4.45
2023-04-30T20:40:55.402Z,5.82
2023-04-30T20:43:22.720Z,5.82
2023-04-30T20:45:50.219Z,5.68
2023-04-30T20:48:17.568Z,4.85
2023-04-30T20:50:44.778Z,19.25
2023-04-30T20:53:12.901Z,12.95
2023-04-30T20:55:40.156Z,5.53
2023-04-30T20:58:09.260Z,4.75
2023-04-30T21:00:36.629Z,5.32
2023-04-30T21:03:04.680Z,7.70
2023-04-30T21:05:32.405Z,5.68
2023-04-30T21:08:01.494Z,6.15
2023-04-30T21:10:36.772Z,3.78
2023-04-30T21:15:58.890Z,3.97
2023-04-30T21:18:29.055Z,3.78
2023-04-30T21:21:04.058Z,4.95
2023-04-30T21:23:32.860Z,4.57
2023-04-30T21:26:00.219Z,3.72
2023-04-30T21:28:27.775Z,4.18
2023-04-30T21:30:55.064Z,3.45
2023-04-30T21:33:22.211Z,3.78
2023-04-30T21:35:49.358Z,3.92
2023-04-30T21:38:16.414Z,5.05
2023-04-30T21:40:43.812Z,4.68
2023-04-30T21:43:11.184Z,3.80
2023-04-30T21:45:38.420Z,3.10
2023-04-30T21:48:06.136Z,3.25
2023-04-30T21:50:33.847Z,4.15
2023-04-30T21:53:03.654Z,5.07
2023-04-30T21:55:31.181Z,3.97
2023-04-30T21:57:58.354Z,2.60
2023-04-30T22:00:25.763Z,3.03
2023-04-30T22:02:52.724Z,5.18
2023-04-30T22:05:21.118Z,5.43
2023-04-30T22:07:48.835Z,6.45
2023-04-30T22:10:15.985Z,4.43
2023-04-30T22:12:47.107Z,7.20
2023-04-30T22:15:15.288Z,4.53
2023-04-30T22:17:42.546Z,4.45
2023-04-30T22:20:10.918Z,3.35
2023-04-30T22:22:38.066Z,3.63
2023-04-30T22:25:06.047Z,3.40
2023-04-30T22:27:33.099Z,5.65
2023-04-30T22:30:00.182Z,3.35
2023-04-30T22:32:27.670Z,3.45
2023-04-30T22:34:55.303Z,3.28
2023-04-30T22:37:23.561Z,5.90
2023-04-30T22:39:50.894Z,4.53
2023-04-30T22:42:18.382Z,4.05
2023-04-30T22:44:45.940Z,6.13
2023-04-30T22:47:13.725Z,3.25
2023-04-30T22:49:41.677Z,3.80
2023-04-30T22:52:09.117Z,3.50
2023-04-30T22:54:36.350Z,4.13
2023-04-30T22:57:04.363Z,4.88
2023-04-30T22:59:31.436Z,3.50
2023-04-30T23:01:59.787Z,4.68
2023-04-30T23:04:27.644Z,6.30
2023-04-30T23:06:55.083Z,5.47
2023-04-30T23:09:22.200Z,8.05
2023-04-30T23:11:49.191Z,6.72
2023-04-30T23:14:16.761Z,5.05
2023-04-30T23:16:44.208Z,5.30
2023-04-30T23:19:11.956Z,5.97
2023-04-30T23:21:38.917Z,4.65
2023-04-30T23:24:06.239Z,5.05
2023-04-30T23:26:33.337Z,6.20
2023-04-30T23:29:00.316Z,7.60
2023-04-30T23:31:27.358Z,6.50
2023-04-30T23:33:54.458Z,6.10
2023-04-30T23:36:21.552Z,6.28
2023-04-30T23:38:48.544Z,6.22
2023-04-30T23:41:15.676Z,6.10
2023-04-30T23:43:42.783Z,6.78
2023-04-30T23:46:10.105Z,7.50
2023-04-30T23:48:37.521Z,7.72
2023-04-30T23:51:07.573Z,7.90
2023-04-30T23:53:35.780Z,6.28
2023-04-30T23:56:05.676Z,7.10
2023-04-30T23:58:33.127Z,7.63
